sensor_id;sensor_type;location;lat;lon;timestamp;P1;durP1;ratioP1;P2;durP2;ratioP2
14592;SDS011;7383;52.354;9.756;2023-08-06T00:00:39;2.70;;;2.50;;
14592;SDS011;7383;52.354;9.756;2023-08-06T00:03:07;2.60;;;2.40;;
14592;SDS011;7383;52.354;9.756;2023-08-06T00:05:33;2.35;;;2.25;;
14592;SDS011;7383;52.354;9.756;2023-08-06T00:08:00;2.28;;;2.17;;
14592;SDS011;7383;52.354;9.756;2023-08-06T00:10:27;2.22;;;2.03;;
14592;SDS011;7383;52.354;9.756;2023-08-06T00:12:54;2.05;;;1.95;;
14592;SDS011;7383;52.354;9.756;2023-08-06T00:15:20;1.77;;;1.73;;
14592;SDS011;7383;52.354;9.756;2023-08-06T00:17:47;2.17;;;2.08;;
14592;SDS011;7383;52.354;9.756;2023-08-06T00:20:15;2.00;;;1.90;;
14592;SDS011;7383;52.354;9.756;2023-08-06T00:22:41;2.10;;;1.90;;
14592;SDS011;7383;52.354;9.756;2023-08-06T00:25:08;2.20;;;2.10;;
14592;SDS011;7383;52.354;9.756;2023-08-06T00:27:35;1.98;;;1.88;;
14592;SDS011;7383;52.354;9.756;2023-08-06T00:30:02;1.85;;;1.75;;
14592;SDS011;7383;52.354;9.756;2023-08-06T00:32:29;2.10;;;2.00;;
14592;SDS011;7383;52.354;9.756;2023-08-06T00:34:56;2.17;;;2.08;;
14592;SDS011;7383;52.354;9.756;2023-08-06T00:37:24;1.90;;;1.80;;
14592;SDS011;7383;52.354;9.756;2023-08-06T00:39:50;2.10;;;2.00;;
14592;SDS011;7383;52.354;9.756;2023-08-06T00:42:17;2.42;;;2.22;;
14592;SDS011;7383;52.354;9.756;2023-08-06T00:44:45;2.58;;;2.38;;
14592;SDS011;7383;52.354;9.756;2023-08-06T00:47:12;2.17;;;2.08;;
14592;SDS011;7383;52.354;9.756;2023-08-06T00:49:40;2.25;;;2.15;;
14592;SDS011;7383;52.354;9.756;2023-08-06T00:52:07;2.60;;;2.50;;
14592;SDS011;7383;52.354;9.756;2023-08-06T00:54:35;2.30;;;2.20;;
14592;SDS011;7383;52.354;9.756;2023-08-06T00:57:03;2.67;;;2.58;;
14592;SDS011;7383;52.354;9.756;2023-08-06T00:59:30;2.47;;;2.35;;
14592;SDS011;7383;52.354;9.756;2023-08-06T01:01:57;2.55;;;2.45;;
14592;SDS011;7383;52.354;9.756;2023-08-06T01:04:25;2.65;;;2.45;;
14592;SDS011;7383;52.354;9.756;2023-08-06T01:06:52;3.20;;;2.67;;
14592;SDS011;7383;52.354;9.756;2023-08-06T01:09:31;2.80;;;2.60;;
14592;SDS011;7383;52.354;9.756;2023-08-06T01:12:09;2.85;;;2.65;;
14592;SDS011;7383;52.354;9.756;2023-08-06T01:14:46;2.80;;;2.60;;
14592;SDS011;7383;52.354;9.756;2023-08-06T01:17:18;3.03;;;2.83;;
14592;SDS011;7383;52.354;9.756;2023-08-06T01:19:48;3.10;;;2.90;;
14592;SDS011;7383;52.354;9.756;2023-08-06T01:22:16;2.80;;;2.65;;
14592;SDS011;7383;52.354;9.756;2023-08-06T01:24:43;3.28;;;3.08;;
14592;SDS011;7383;52.354;9.756;2023-08-06T01:27:17;2.88;;;2.67;;
14592;SDS011;7383;52.354;9.756;2023-08-06T01:29:53;2.85;;;2.65;;
14592;SDS011;7383;52.354;9.756;2023-08-06T01:32:26;2.83;;;2.72;;
14592;SDS011;7383;52.354;9.756;2023-08-06T01:34:53;3.05;;;2.90;;
14592;SDS011;7383;52.354;9.756;2023-08-06T01:37:22;2.83;;;2.63;;
14592;SDS011;7383;52.354;9.756;2023-08-06T01:39:49;3.03;;;2.83;;
14592;SDS011;7383;52.354;9.756;2023-08-06T01:42:15;3.50;;;3.20;;
14592;SDS011;7383;52.354;9.756;2023-08-06T01:44:42;3.28;;;3.05;;
14592;SDS011;7383;52.354;9.756;2023-08-06T01:47:08;3.00;;;2.80;;
14592;SDS011;7383;52.354;9.756;2023-08-06T01:49:35;3.20;;;3.00;;
14592;SDS011;7383;52.354;9.756;2023-08-06T01:52:01;3.70;;;3.40;;
14592;SDS011;7383;52.354;9.756;2023-08-06T01:54:31;3.72;;;3.45;;
14592;SDS011;7383;52.354;9.756;2023-08-06T01:56:57;3.67;;;3.38;;
14592;SDS011;7383;52.354;9.756;2023-08-06T01:59:24;3.28;;;3.08;;
14592;SDS011;7383;52.354;9.756;2023-08-06T02:01:51;3.95;;;3.67;;
14592;SDS011;7383;52.354;9.756;2023-08-06T02:04:17;4.30;;;4.00;;
14592;SDS011;7383;52.354;9.756;2023-08-06T02:06:44;3.65;;;3.42;;
14592;SDS011;7383;52.354;9.756;2023-08-06T02:09:10;3.75;;;3.45;;
14592;SDS011;7383;52.354;9.756;2023-08-06T02:11:38;3.78;;;3.42;;
14592;SDS011;7383;52.354;9.756;2023-08-06T02:14:05;3.75;;;3.55;;
14592;SDS011;7383;52.354;9.756;2023-08-06T02:16:31;3.58;;;3.38;;
14592;SDS011;7383;52.354;9.756;2023-08-06T02:18:58;3.55;;;3.35;;
14592;SDS011;7383;52.354;9.756;2023-08-06T02:21:24;3.75;;;3.55;;
14592;SDS011;7383;52.354;9.756;2023-08-06T02:23:51;3.78;;;3.50;;
14592;SDS011;7383;52.354;9.756;2023-08-06T02:26:17;3.75;;;3.45;;
14592;SDS011;7383;52.354;9.756;2023-08-06T02:28:45;4.28;;;3.88;;
14592;SDS011;7383;52.354;9.756;2023-08-06T02:31:13;3.97;;;3.67;;
14592;SDS011;7383;52.354;9.756;2023-08-06T02:33:43;4.07;;;3.78;;
14592;SDS011;7383;52.354;9.756;2023-08-06T02:36:10;3.90;;;3.60;;
14592;SDS011;7383;52.354;9.756;2023-08-06T02:38:36;3.65;;;3.45;;
14592;SDS011;7383;52.354;9.756;2023-08-06T02:41:03;5.32;;;4.93;;
14592;SDS011;7383;52.354;9.756;2023-08-06T02:43:30;4.32;;;4.03;;
14592;SDS011;7383;52.354;9.756;2023-08-06T02:45:58;3.85;;;3.65;;
14592;SDS011;7383;52.354;9.756;2023-08-06T02:48:26;3.92;;;3.63;;
14592;SDS011;7383;52.354;9.756;2023-08-06T02:50:53;4.32;;;4.03;;
14592;SDS011;7383;52.354;9.756;2023-08-06T02:53:23;3.67;;;3.47;;
14592;SDS011;7383;52.354;9.756;2023-08-06T02:55:50;3.70;;;3.40;;
14592;SDS011;7383;52.354;9.756;2023-08-06T02:58:17;4.18;;;3.88;;
14592;SDS011;7383;52.354;9.756;2023-08-06T03:00:47;4.10;;;3.80;;
14592;SDS011;7383;52.354;9.756;2023-08-06T03:03:28;4.20;;;3.90;;
14592;SDS011;7383;52.354;9.756;2023-08-06T03:05:58;4.28;;;3.92;;
14592;SDS011;7383;52.354;9.756;2023-08-06T03:08:24;4.10;;;3.80;;
14592;SDS011;7383;52.354;9.756;2023-08-06T03:10:52;3.80;;;3.58;;
14592;SDS011;7383;52.354;9.756;2023-08-06T03:13:19;5.47;;;4.22;;
14592;SDS011;7383;52.354;9.756;2023-08-06T03:15:51;3.80;;;3.58;;
14592;SDS011;7383;52.354;9.756;2023-08-06T03:18:20;4.82;;;4.43;;
14592;SDS011;7383;52.354;9.756;2023-08-06T03:20:47;4.00;;;3.70;;
14592;SDS011;7383;52.354;9.756;2023-08-06T03:23:13;4.15;;;3.85;;
14592;SDS011;7383;52.354;9.756;2023-08-06T03:25:40;4.07;;;3.72;;
14592;SDS011;7383;52.354;9.756;2023-08-06T03:28:07;3.50;;;3.30;;
14592;SDS011;7383;52.354;9.756;2023-08-06T03:30:33;4.43;;;4.03;;
14592;SDS011;7383;52.354;9.756;2023-08-06T03:33:00;4.30;;;3.90;;
14592;SDS011;7383;52.354;9.756;2023-08-06T03:35:28;4.00;;;3.70;;
14592;SDS011;7383;52.354;9.756;2023-08-06T03:37:54;3.72;;;3.53;;
14592;SDS011;7383;52.354;9.756;2023-08-06T03:40:21;4.10;;;3.70;;
14592;SDS011;7383;52.354;9.756;2023-08-06T03:42:47;3.83;;;3.53;;
14592;SDS011;7383;52.354;9.756;2023-08-06T03:45:16;4.00;;;3.70;;
14592;SDS011;7383;52.354;9.756;2023-08-06T03:47:43;4.05;;;3.75;;
14592;SDS011;7383;52.354;9.756;2023-08-06T03:50:09;4.07;;;3.78;;
14592;SDS011;7383;52.354;9.756;2023-08-06T03:52:37;3.65;;;3.45;;
14592;SDS011;7383;52.354;9.756;2023-08-06T03:55:04;4.13;;;3.72;;
14592;SDS011;7383;52.354;9.756;2023-08-06T03:57:30;3.95;;;3.65;;
14592;SDS011;7383;52.354;9.756;2023-08-06T03:59:59;3.60;;;3.40;;
14592;SDS011;7383;52.354;9.756;2023-08-06T04:02:25;4.80;;;4.07;;
14592;SDS011;7383;52.354;9.756;2023-08-06T04:04:52;4.45;;;4.05;;
14592;SDS011;7383;52.354;9.756;2023-08-06T04:07:19;4.18;;;3.88;;
14592;SDS011;7383;52.354;9.756;2023-08-06T04:09:54;4.55;;;4.15;;
14592;SDS011;7383;52.354;9.756;2023-08-06T04:12:21;4.20;;;3.90;;
14592;SDS011;7383;52.354;9.756;2023-08-06T04:14:48;4.55;;;4.25;;
14592;SDS011;7383;52.354;9.756;2023-08-06T04:17:14;4.40;;;4.00;;
14592;SDS011;7383;52.354;9.756;2023-08-06T04:19:41;4.45;;;4.10;;
14592;SDS011;7383;52.354;9.756;2023-08-06T04:22:07;4.40;;;4.10;;
14592;SDS011;7383;52.354;9.756;2023-08-06T04:24:34;5.18;;;4.78;;
14592;SDS011;7383;52.354;9.756;2023-08-06T04:27:03;4.35;;;3.97;;
14592;SDS011;7383;52.354;9.756;2023-08-06T04:29:30;4.55;;;3.83;;
14592;SDS011;7383;52.354;9.756;2023-08-06T04:31:57;4.10;;;3.80;;
14592;SDS011;7383;52.354;9.756;2023-08-06T04:34:24;4.00;;;3.70;;
14592;SDS011;7383;52.354;9.756;2023-08-06T04:36:50;4.03;;;3.70;;
14592;SDS011;7383;52.354;9.756;2023-08-06T04:39:17;4.22;;;3.83;;
14592;SDS011;7383;52.354;9.756;2023-08-06T04:41:43;4.22;;;3.83;;
14592;SDS011;7383;52.354;9.756;2023-08-06T04:44:12;4.03;;;3.72;;
14592;SDS011;7383;52.354;9.756;2023-08-06T04:46:38;4.30;;;4.00;;
14592;SDS011;7383;52.354;9.756;2023-08-06T04:49:05;3.65;;;3.38;;
14592;SDS011;7383;52.354;9.756;2023-08-06T04:51:31;4.13;;;3.80;;
14592;SDS011;7383;52.354;9.756;2023-08-06T04:53:59;3.63;;;3.42;;
14592;SDS011;7383;52.354;9.756;2023-08-06T04:56:25;4.70;;;4.30;;
14592;SDS011;7383;52.354;9.756;2023-08-06T04:58:52;3.97;;;3.67;;
14592;SDS011;7383;52.354;9.756;2023-08-06T05:01:20;4.05;;;3.75;;
14592;SDS011;7383;52.354;9.756;2023-08-06T05:03:47;4.32;;;3.92;;
14592;SDS011;7383;52.354;9.756;2023-08-06T05:06:13;4.55;;;4.25;;
14592;SDS011;7383;52.354;9.756;2023-08-06T05:08:40;4.03;;;3.63;;
14592;SDS011;7383;52.354;9.756;2023-08-06T05:11:06;4.07;;;3.78;;
14592;SDS011;7383;52.354;9.756;2023-08-06T05:13:33;4.32;;;3.92;;
14592;SDS011;7383;52.354;9.756;2023-08-06T05:15:59;4.38;;;4.07;;
14592;SDS011;7383;52.354;9.756;2023-08-06T05:18:27;4.03;;;3.72;;
14592;SDS011;7383;52.354;9.756;2023-08-06T05:20:55;4.38;;;4.07;;
14592;SDS011;7383;52.354;9.756;2023-08-06T05:23:22;3.58;;;3.35;;
14592;SDS011;7383;52.354;9.756;2023-08-06T05:25:48;3.97;;;3.67;;
14592;SDS011;7383;52.354;9.756;2023-08-06T05:28:15;4.28;;;3.88;;
14592;SDS011;7383;52.354;9.756;2023-08-06T05:30:41;4.28;;;3.97;;
14592;SDS011;7383;52.354;9.756;2023-08-06T05:33:08;3.85;;;3.55;;
14592;SDS011;7383;52.354;9.756;2023-08-06T05:35:42;4.20;;;3.70;;
14592;SDS011;7383;52.354;9.756;2023-08-06T05:38:09;3.97;;;3.67;;
14592;SDS011;7383;52.354;9.756;2023-08-06T05:40:36;4.00;;;3.60;;
14592;SDS011;7383;52.354;9.756;2023-08-06T05:43:03;3.40;;;3.20;;
14592;SDS011;7383;52.354;9.756;2023-08-06T05:45:30;3.55;;;3.35;;
14592;SDS011;7383;52.354;9.756;2023-08-06T05:47:56;3.47;;;3.17;;
14592;SDS011;7383;52.354;9.756;2023-08-06T05:50:23;3.53;;;3.22;;
14592;SDS011;7383;52.354;9.756;2023-08-06T05:52:52;3.53;;;2.95;;
14592;SDS011;7383;52.354;9.756;2023-08-06T05:55:19;3.25;;;3.05;;
14592;SDS011;7383;52.354;9.756;2023-08-06T05:57:46;3.63;;;3.33;;
14592;SDS011;7383;52.354;9.756;2023-08-06T06:00:13;3.05;;;2.85;;
14592;SDS011;7383;52.354;9.756;2023-08-06T06:02:40;2.70;;;2.60;;
14592;SDS011;7383;52.354;9.756;2023-08-06T06:05:06;3.15;;;2.95;;
14592;SDS011;7383;52.354;9.756;2023-08-06T06:07:34;2.90;;;2.70;;
14592;SDS011;7383;52.354;9.756;2023-08-06T06:10:03;2.90;;;2.60;;
14592;SDS011;7383;52.354;9.756;2023-08-06T06:12:30;3.10;;;2.90;;
14592;SDS011;7383;52.354;9.756;2023-08-06T06:14:56;2.63;;;2.42;;
14592;SDS011;7383;52.354;9.756;2023-08-06T06:17:23;3.05;;;2.47;;
14592;SDS011;7383;52.354;9.756;2023-08-06T06:19:49;2.47;;;2.38;;
14592;SDS011;7383;52.354;9.756;2023-08-06T06:22:16;2.30;;;2.20;;
14592;SDS011;7383;52.354;9.756;2023-08-06T06:24:42;2.33;;;2.22;;
14592;SDS011;7383;52.354;9.756;2023-08-06T06:27:10;2.53;;;2.33;;
14592;SDS011;7383;52.354;9.756;2023-08-06T06:29:37;2.78;;;2.55;;
14592;SDS011;7383;52.354;9.756;2023-08-06T06:32:03;2.97;;;2.45;;
14592;SDS011;7383;52.354;9.756;2023-08-06T06:34:30;2.58;;;2.40;;
14592;SDS011;7383;52.354;9.756;2023-08-06T06:36:57;2.03;;;1.92;;
14592;SDS011;7383;52.354;9.756;2023-08-06T06:39:26;2.20;;;2.10;;
14592;SDS011;7383;52.354;9.756;2023-08-06T06:41:53;2.35;;;2.15;;
14592;SDS011;7383;52.354;9.756;2023-08-06T06:44:21;2.13;;;2.03;;
14592;SDS011;7383;52.354;9.756;2023-08-06T06:46:47;2.20;;;2.10;;
14592;SDS011;7383;52.354;9.756;2023-08-06T06:49:14;2.40;;;2.30;;
14592;SDS011;7383;52.354;9.756;2023-08-06T06:51:40;2.13;;;2.03;;
14592;SDS011;7383;52.354;9.756;2023-08-06T06:54:07;2.35;;;2.10;;
14592;SDS011;7383;52.354;9.756;2023-08-06T06:56:33;2.22;;;2.13;;
14592;SDS011;7383;52.354;9.756;2023-08-06T06:59:00;2.40;;;2.28;;
14592;SDS011;7383;52.354;9.756;2023-08-06T07:01:28;2.08;;;1.98;;
14592;SDS011;7383;52.354;9.756;2023-08-06T07:03:55;2.40;;;2.30;;
14592;SDS011;7383;52.354;9.756;2023-08-06T07:06:22;1.98;;;1.88;;
14592;SDS011;7383;52.354;9.756;2023-08-06T07:08:51;2.13;;;2.03;;
14592;SDS011;7383;52.354;9.756;2023-08-06T07:11:18;2.10;;;2.00;;
14592;SDS011;7383;52.354;9.756;2023-08-06T07:13:44;1.88;;;1.77;;
14592;SDS011;7383;52.354;9.756;2023-08-06T07:16:11;1.88;;;1.77;;
14592;SDS011;7383;52.354;9.756;2023-08-06T07:18:39;2.42;;;2.10;;
14592;SDS011;7383;52.354;9.756;2023-08-06T07:21:05;1.98;;;1.88;;
14592;SDS011;7383;52.354;9.756;2023-08-06T07:23:32;1.98;;;1.88;;
14592;SDS011;7383;52.354;9.756;2023-08-06T07:25:58;1.90;;;1.80;;
14592;SDS011;7383;52.354;9.756;2023-08-06T07:28:25;1.90;;;1.80;;
14592;SDS011;7383;52.354;9.756;2023-08-06T07:30:51;2.10;;;2.00;;
14592;SDS011;7383;52.354;9.756;2023-08-06T07:33:18;1.58;;;1.48;;
14592;SDS011;7383;52.354;9.756;2023-08-06T07:35:47;1.83;;;1.73;;
14592;SDS011;7383;52.354;9.756;2023-08-06T07:38:14;1.45;;;1.40;;
14592;SDS011;7383;52.354;9.756;2023-08-06T07:40:40;1.60;;;1.52;;
14592;SDS011;7383;52.354;9.756;2023-08-06T07:43:07;1.70;;;1.60;;
14592;SDS011;7383;52.354;9.756;2023-08-06T07:45:34;1.70;;;1.70;;
14592;SDS011;7383;52.354;9.756;2023-08-06T07:48:01;1.90;;;1.80;;
14592;SDS011;7383;52.354;9.756;2023-08-06T07:50:31;1.90;;;1.80;;
14592;SDS011;7383;52.354;9.756;2023-08-06T07:53:00;1.63;;;1.52;;
14592;SDS011;7383;52.354;9.756;2023-08-06T07:55:27;1.73;;;1.63;;
14592;SDS011;7383;52.354;9.756;2023-08-06T07:57:53;1.85;;;1.70;;
14592;SDS011;7383;52.354;9.756;2023-08-06T08:00:20;1.70;;;1.60;;
14592;SDS011;7383;52.354;9.756;2023-08-06T08:02:47;1.60;;;1.50;;
14592;SDS011;7383;52.354;9.756;2023-08-06T08:05:13;1.40;;;1.40;;
14592;SDS011;7383;52.354;9.756;2023-08-06T08:07:40;1.80;;;1.70;;
14592;SDS011;7383;52.354;9.756;2023-08-06T08:10:09;1.75;;;1.65;;
14592;SDS011;7383;52.354;9.756;2023-08-06T08:12:35;1.67;;;1.60;;
14592;SDS011;7383;52.354;9.756;2023-08-06T08:15:03;1.52;;;1.42;;
14592;SDS011;7383;52.354;9.756;2023-08-06T08:17:33;1.65;;;1.55;;
14592;SDS011;7383;52.354;9.756;2023-08-06T08:20:00;1.45;;;1.40;;
14592;SDS011;7383;52.354;9.756;2023-08-06T08:22:26;1.65;;;1.60;;
14592;SDS011;7383;52.354;9.756;2023-08-06T08:24:53;1.70;;;1.60;;
14592;SDS011;7383;52.354;9.756;2023-08-06T08:27:21;1.80;;;1.70;;
14592;SDS011;7383;52.354;9.756;2023-08-06T08:29:47;2.13;;;1.63;;
14592;SDS011;7383;52.354;9.756;2023-08-06T08:32:14;1.58;;;1.48;;
14592;SDS011;7383;52.354;9.756;2023-08-06T08:34:40;1.42;;;1.42;;
14592;SDS011;7383;52.354;9.756;2023-08-06T08:37:07;1.35;;;1.30;;
14592;SDS011;7383;52.354;9.756;2023-08-06T08:39:33;1.70;;;1.60;;
14592;SDS011;7383;52.354;9.756;2023-08-06T08:42:00;1.73;;;1.63;;
14592;SDS011;7383;52.354;9.756;2023-08-06T08:44:30;1.80;;;1.70;;
14592;SDS011;7383;52.354;9.756;2023-08-06T08:46:58;1.90;;;1.80;;
14592;SDS011;7383;52.354;9.756;2023-08-06T08:49:27;1.67;;;1.58;;
14592;SDS011;7383;52.354;9.756;2023-08-06T08:51:55;1.52;;;1.42;;
14592;SDS011;7383;52.354;9.756;2023-08-06T08:54:25;1.52;;;1.42;;
14592;SDS011;7383;52.354;9.756;2023-08-06T08:56:53;1.83;;;1.60;;
14592;SDS011;7383;52.354;9.756;2023-08-06T08:59:21;1.50;;;1.50;;
14592;SDS011;7383;52.354;9.756;2023-08-06T09:01:49;2.22;;;2.13;;
14592;SDS011;7383;52.354;9.756;2023-08-06T09:04:17;1.60;;;1.50;;
14592;SDS011;7383;52.354;9.756;2023-08-06T09:06:45;1.90;;;1.80;;
14592;SDS011;7383;52.354;9.756;2023-08-06T09:09:13;1.77;;;1.67;;
14592;SDS011;7383;52.354;9.756;2023-08-06T09:11:43;1.70;;;1.70;;
14592;SDS011;7383;52.354;9.756;2023-08-06T09:14:11;1.77;;;1.67;;
14592;SDS011;7383;52.354;9.756;2023-08-06T09:16:38;2.15;;;2.05;;
14592;SDS011;7383;52.354;9.756;2023-08-06T09:19:09;2.00;;;1.88;;
14592;SDS011;7383;52.354;9.756;2023-08-06T09:21:37;1.52;;;1.50;;
14592;SDS011;7383;52.354;9.756;2023-08-06T09:24:07;1.90;;;1.80;;
14592;SDS011;7383;52.354;9.756;2023-08-06T09:26:34;2.28;;;1.80;;
14592;SDS011;7383;52.354;9.756;2023-08-06T09:29:01;1.98;;;1.88;;
14592;SDS011;7383;52.354;9.756;2023-08-06T09:31:32;1.83;;;1.73;;
14592;SDS011;7383;52.354;9.756;2023-08-06T09:33:59;1.50;;;1.50;;
14592;SDS011;7383;52.354;9.756;2023-08-06T09:36:27;1.77;;;1.67;;
14592;SDS011;7383;52.354;9.756;2023-08-06T09:38:53;2.13;;;1.80;;
14592;SDS011;7383;52.354;9.756;2023-08-06T09:41:25;1.80;;;1.70;;
14592;SDS011;7383;52.354;9.756;2023-08-06T09:43:53;1.85;;;1.75;;
14592;SDS011;7383;52.354;9.756;2023-08-06T09:46:20;1.90;;;1.80;;
14592;SDS011;7383;52.354;9.756;2023-08-06T09:48:47;2.00;;;1.90;;
14592;SDS011;7383;52.354;9.756;2023-08-06T09:51:14;1.77;;;1.67;;
14592;SDS011;7383;52.354;9.756;2023-08-06T09:53:43;1.75;;;1.65;;
14592;SDS011;7383;52.354;9.756;2023-08-06T09:56:10;1.98;;;1.88;;
14592;SDS011;7383;52.354;9.756;2023-08-06T09:58:38;1.70;;;1.70;;
14592;SDS011;7383;52.354;9.756;2023-08-06T10:01:08;1.52;;;1.52;;
14592;SDS011;7383;52.354;9.756;2023-08-06T10:03:36;1.92;;;1.83;;
14592;SDS011;7383;52.354;9.756;2023-08-06T10:06:03;1.50;;;1.40;;
14592;SDS011;7383;52.354;9.756;2023-08-06T10:08:32;2.22;;;2.13;;
14592;SDS011;7383;52.354;9.756;2023-08-06T10:11:00;2.00;;;1.90;;
14592;SDS011;7383;52.354;9.756;2023-08-06T10:13:29;1.80;;;1.70;;
14592;SDS011;7383;52.354;9.756;2023-08-06T10:15:56;1.67;;;1.58;;
14592;SDS011;7383;52.354;9.756;2023-08-06T10:18:23;1.50;;;1.50;;
14592;SDS011;7383;52.354;9.756;2023-08-06T10:20:50;1.40;;;1.40;;
14592;SDS011;7383;52.354;9.756;2023-08-06T10:23:17;1.70;;;1.60;;
14592;SDS011;7383;52.354;9.756;2023-08-06T10:25:45;1.70;;;1.60;;
14592;SDS011;7383;52.354;9.756;2023-08-06T10:28:22;1.70;;;1.60;;
14592;SDS011;7383;52.354;9.756;2023-08-06T10:31:00;1.50;;;1.50;;
14592;SDS011;7383;52.354;9.756;2023-08-06T10:33:26;1.60;;;1.60;;
14592;SDS011;7383;52.354;9.756;2023-08-06T10:36:08;1.77;;;1.67;;
14592;SDS011;7383;52.354;9.756;2023-08-06T10:38:44;1.73;;;1.63;;
14592;SDS011;7383;52.354;9.756;2023-08-06T10:41:15;1.90;;;1.80;;
14592;SDS011;7383;52.354;9.756;2023-08-06T10:43:44;1.63;;;1.52;;
14592;SDS011;7383;52.354;9.756;2023-08-06T10:46:21;1.90;;;1.63;;
14592;SDS011;7383;52.354;9.756;2023-08-06T10:48:51;5.97;;;5.25;;
14592;SDS011;7383;52.354;9.756;2023-08-06T10:51:18;4.53;;;4.22;;
14592;SDS011;7383;52.354;9.756;2023-08-06T10:53:46;3.30;;;3.10;;
14592;SDS011;7383;52.354;9.756;2023-08-06T10:56:14;2.70;;;2.60;;
14592;SDS011;7383;52.354;9.756;2023-08-06T10:58:41;2.00;;;1.90;;
14592;SDS011;7383;52.354;9.756;2023-08-06T11:01:12;2.35;;;2.15;;
14592;SDS011;7383;52.354;9.756;2023-08-06T11:03:40;2.15;;;2.05;;
14592;SDS011;7383;52.354;9.756;2023-08-06T11:06:07;2.13;;;2.03;;
14592;SDS011;7383;52.354;9.756;2023-08-06T11:08:35;2.20;;;2.10;;
14592;SDS011;7383;52.354;9.756;2023-08-06T11:11:09;2.10;;;2.00;;
14592;SDS011;7383;52.354;9.756;2023-08-06T11:13:39;2.00;;;1.90;;
14592;SDS011;7383;52.354;9.756;2023-08-06T11:16:05;1.80;;;1.70;;
14592;SDS011;7383;52.354;9.756;2023-08-06T11:18:34;2.00;;;1.90;;
14592;SDS011;7383;52.354;9.756;2023-08-06T11:21:00;1.70;;;1.70;;
14592;SDS011;7383;52.354;9.756;2023-08-06T11:23:27;1.85;;;1.75;;
14592;SDS011;7383;52.354;9.756;2023-08-06T11:25:54;1.70;;;1.60;;
14592;SDS011;7383;52.354;9.756;2023-08-06T11:28:22;1.85;;;1.75;;
14592;SDS011;7383;52.354;9.756;2023-08-06T11:30:49;1.90;;;1.80;;
14592;SDS011;7383;52.354;9.756;2023-08-06T11:33:19;2.00;;;1.90;;
14592;SDS011;7383;52.354;9.756;2023-08-06T11:35:48;1.45;;;1.42;;
14592;SDS011;7383;52.354;9.756;2023-08-06T11:38:17;1.50;;;1.50;;
14592;SDS011;7383;52.354;9.756;2023-08-06T11:40:47;1.75;;;1.65;;
14592;SDS011;7383;52.354;9.756;2023-08-06T11:43:17;1.60;;;1.60;;
14592;SDS011;7383;52.354;9.756;2023-08-06T11:45:45;2.22;;;1.73;;
14592;SDS011;7383;52.354;9.756;2023-08-06T11:48:15;1.45;;;1.45;;
14592;SDS011;7383;52.354;9.756;2023-08-06T11:50:43;2.17;;;2.08;;
14592;SDS011;7383;52.354;9.756;2023-08-06T11:53:12;1.48;;;1.48;;
14592;SDS011;7383;52.354;9.756;2023-08-06T11:55:39;1.70;;;1.60;;
14592;SDS011;7383;52.354;9.756;2023-08-06T11:58:06;2.50;;;1.67;;
14592;SDS011;7383;52.354;9.756;2023-08-06T12:00:33;2.38;;;1.70;;
14592;SDS011;7383;52.354;9.756;2023-08-06T12:03:04;2.15;;;2.00;;
14592;SDS011;7383;52.354;9.756;2023-08-06T12:05:31;1.85;;;1.73;;
14592;SDS011;7383;52.354;9.756;2023-08-06T12:07:59;1.65;;;1.55;;
14592;SDS011;7383;52.354;9.756;2023-08-06T12:10:29;1.70;;;1.60;;
14592;SDS011;7383;52.354;9.756;2023-08-06T12:12:58;1.73;;;1.60;;
14592;SDS011;7383;52.354;9.756;2023-08-06T12:15:26;1.80;;;1.70;;
14592;SDS011;7383;52.354;9.756;2023-08-06T12:17:52;1.58;;;1.48;;
14592;SDS011;7383;52.354;9.756;2023-08-06T12:20:19;1.75;;;1.65;;
14592;SDS011;7383;52.354;9.756;2023-08-06T12:22:46;1.73;;;1.63;;
14592;SDS011;7383;52.354;9.756;2023-08-06T12:25:13;1.45;;;1.42;;
14592;SDS011;7383;52.354;9.756;2023-08-06T12:27:41;1.65;;;1.60;;
14592;SDS011;7383;52.354;9.756;2023-08-06T12:30:12;1.52;;;1.52;;
14592;SDS011;7383;52.354;9.756;2023-08-06T12:32:40;1.70;;;1.60;;
14592;SDS011;7383;52.354;9.756;2023-08-06T12:35:07;2.28;;;1.70;;
14592;SDS011;7383;52.354;9.756;2023-08-06T12:37:34;1.33;;;1.27;;
14592;SDS011;7383;52.354;9.756;2023-08-06T12:40:03;1.83;;;1.73;;
14592;SDS011;7383;52.354;9.756;2023-08-06T12:42:31;1.65;;;1.60;;
14592;SDS011;7383;52.354;9.756;2023-08-06T12:44:59;1.40;;;1.40;;
14592;SDS011;7383;52.354;9.756;2023-08-06T12:47:25;1.40;;;1.40;;
14592;SDS011;7383;52.354;9.756;2023-08-06T12:49:52;1.75;;;1.70;;
14592;SDS011;7383;52.354;9.756;2023-08-06T12:52:18;1.60;;;1.60;;
14592;SDS011;7383;52.354;9.756;2023-08-06T12:54:45;1.48;;;1.48;;
14592;SDS011;7383;52.354;9.756;2023-08-06T12:57:11;1.83;;;1.73;;
14592;SDS011;7383;52.354;9.756;2023-08-06T12:59:38;1.65;;;1.63;;
14592;SDS011;7383;52.354;9.756;2023-08-06T13:02:06;1.65;;;1.55;;
14592;SDS011;7383;52.354;9.756;2023-08-06T13:04:33;1.58;;;1.50;;
14592;SDS011;7383;52.354;9.756;2023-08-06T13:07:00;1.30;;;1.30;;
14592;SDS011;7383;52.354;9.756;2023-08-06T13:09:26;1.80;;;1.70;;
14592;SDS011;7383;52.354;9.756;2023-08-06T13:11:53;1.42;;;1.40;;
14592;SDS011;7383;52.354;9.756;2023-08-06T13:14:19;1.50;;;1.50;;
14592;SDS011;7383;52.354;9.756;2023-08-06T13:16:46;1.90;;;1.80;;
14592;SDS011;7383;52.354;9.756;2023-08-06T13:19:15;1.83;;;1.73;;
14592;SDS011;7383;52.354;9.756;2023-08-06T13:22:01;1.80;;;1.70;;
14592;SDS011;7383;52.354;9.756;2023-08-06T13:24:30;1.77;;;1.67;;
14592;SDS011;7383;52.354;9.756;2023-08-06T13:26:57;1.60;;;1.50;;
14592;SDS011;7383;52.354;9.756;2023-08-06T13:29:24;1.65;;;1.55;;
14592;SDS011;7383;52.354;9.756;2023-08-06T13:31:52;1.80;;;1.70;;
14592;SDS011;7383;52.354;9.756;2023-08-06T13:34:19;1.67;;;1.60;;
14592;SDS011;7383;52.354;9.756;2023-08-06T13:36:46;2.03;;;1.92;;
14592;SDS011;7383;52.354;9.756;2023-08-06T13:39:12;1.88;;;1.77;;
14592;SDS011;7383;52.354;9.756;2023-08-06T13:41:41;1.83;;;1.77;;
14592;SDS011;7383;52.354;9.756;2023-08-06T13:44:08;2.20;;;2.10;;
14592;SDS011;7383;52.354;9.756;2023-08-06T13:46:34;2.40;;;2.30;;
14592;SDS011;7383;52.354;9.756;2023-08-06T13:49:01;2.00;;;1.90;;
14592;SDS011;7383;52.354;9.756;2023-08-06T13:51:29;1.88;;;1.77;;
14592;SDS011;7383;52.354;9.756;2023-08-06T13:53:55;1.70;;;1.60;;
14592;SDS011;7383;52.354;9.756;2023-08-06T13:56:23;1.67;;;1.63;;
14592;SDS011;7383;52.354;9.756;2023-08-06T13:58:49;1.50;;;1.40;;
14592;SDS011;7383;52.354;9.756;2023-08-06T14:01:16;1.60;;;1.50;;
14592;SDS011;7383;52.354;9.756;2023-08-06T14:03:44;1.70;;;1.60;;
14592;SDS011;7383;52.354;9.756;2023-08-06T14:06:10;1.90;;;1.80;;
14592;SDS011;7383;52.354;9.756;2023-08-06T14:08:38;1.80;;;1.70;;
14592;SDS011;7383;52.354;9.756;2023-08-06T14:11:05;1.60;;;1.50;;
14592;SDS011;7383;52.354;9.756;2023-08-06T14:13:32;1.73;;;1.63;;
14592;SDS011;7383;52.354;9.756;2023-08-06T14:15:58;1.60;;;1.50;;
14592;SDS011;7383;52.354;9.756;2023-08-06T14:18:25;1.75;;;1.65;;
14592;SDS011;7383;52.354;9.756;2023-08-06T14:20:52;1.38;;;1.38;;
14592;SDS011;7383;52.354;9.756;2023-08-06T14:23:19;1.40;;;1.30;;
14592;SDS011;7383;52.354;9.756;2023-08-06T14:25:48;1.30;;;1.30;;
14592;SDS011;7383;52.354;9.756;2023-08-06T14:28:15;1.50;;;1.50;;
14592;SDS011;7383;52.354;9.756;2023-08-06T14:30:41;1.33;;;1.33;;
14592;SDS011;7383;52.354;9.756;2023-08-06T14:33:11;1.70;;;1.60;;
14592;SDS011;7383;52.354;9.756;2023-08-06T14:35:38;1.52;;;1.52;;
14592;SDS011;7383;52.354;9.756;2023-08-06T14:38:05;1.90;;;1.70;;
14592;SDS011;7383;52.354;9.756;2023-08-06T14:40:31;1.70;;;1.60;;
14592;SDS011;7383;52.354;9.756;2023-08-06T14:43:04;1.75;;;1.70;;
14592;SDS011;7383;52.354;9.756;2023-08-06T14:45:31;1.90;;;1.80;;
14592;SDS011;7383;52.354;9.756;2023-08-06T14:47:58;1.83;;;1.73;;
14592;SDS011;7383;52.354;9.756;2023-08-06T14:50:27;1.80;;;1.70;;
14592;SDS011;7383;52.354;9.756;2023-08-06T14:52:53;1.70;;;1.60;;
14592;SDS011;7383;52.354;9.756;2023-08-06T14:55:23;1.98;;;1.88;;
14592;SDS011;7383;52.354;9.756;2023-08-06T14:57:50;1.60;;;1.50;;
14592;SDS011;7383;52.354;9.756;2023-08-06T15:00:18;1.77;;;1.67;;
14592;SDS011;7383;52.354;9.756;2023-08-06T15:02:45;1.98;;;1.88;;